Terminal Aerodrome Forecast
Issued by NWS

Home | Current Version | Previous Version | Text Only | Print | Product List | Glossary On
Versions: 1 2 3 4 5 6 7 8 9 10 11 12 13 14 15 16 17 18
000
FTUS43 KDVN 030520
TAFCID
TAF
KCID 030520Z 0306/0406 14005KT P6SM BKN250
     FM031100 15004KT 6SM BR SCT012 BKN200
     FM031500 18011KT P6SM BKN120
     FM040000 16006KT P6SM BKN060=

USA.gov is the U.S. government's official web portal to all federal, state and local government web resources and services.